Time;durP1;ratioP1;P1;durP2;ratioP2;P2;SDS_P1;SDS_P2;PMS_P1;PMS_P2;Temp;Humidity;BMP_temperature;BMP_pressure;BME280_temperature;BME280_humidity;BME280_pressure;Samples;Min_cycle;Max_cycle;Signal;HPM_P1;HPM_P2
2023/03/03 00:01:00;;;;;;;17.50;13.73;;;0.40;99.90;;;;;;4955740;28;20526;-54
2023/03/03 00:03:27;;;;;;;14.53;12.83;;;0.40;99.90;;;;;;4946456;28;20510;-51
2023/03/03 00:05:54;;;;;;;16.10;13.00;;;0.30;99.90;;;;;;4944464;28;20529;-51
2023/03/03 00:08:22;;;;;;;14.20;12.80;;;0.30;99.90;;;;;;4954871;28;20538;-52
2023/03/03 00:10:49;;;;;;;15.37;13.23;;;0.20;99.90;;;;;;4955876;28;20463;-51
2023/03/03 00:13:19;;;;;;;16.77;14.20;;;0.20;99.90;;;;;;4951552;28;20885;-52
2023/03/03 00:15:46;;;;;;;14.10;12.60;;;0.20;99.90;;;;;;4952010;28;20972;-52
2023/03/03 00:18:30;;;;;;;15.60;13.70;;;0.20;99.90;;;;;;4952017;28;20491;-52
2023/03/03 00:20:59;;;;;;;14.50;12.83;;;0.20;99.90;;;;;;4955661;28;20545;-53
2023/03/03 00:23:31;;;;;;;22.70;13.40;;;0.10;99.90;;;;;;4954550;28;20956;-51
2023/03/03 00:25:59;;;;;;;16.80;14.00;;;0.10;99.90;;;;;;4955228;28;20521;-52
2023/03/03 00:28:30;;;;;;;18.30;15.60;;;0.10;99.90;;;;;;4950239;28;20487;-51
2023/03/03 00:30:58;;;;;;;16.90;14.77;;;0.10;99.90;;;;;;4952320;28;20462;-52
2023/03/03 00:33:32;;;;;;;16.80;14.37;;;0.10;99.90;;;;;;4951087;28;20459;-52
2023/03/03 00:36:20;;;;;;;15.87;14.13;;;0.10;99.90;;;;;;4953769;28;20505;-52
2023/03/03 00:38:48;;;;;;;15.63;13.77;;;0.20;99.90;;;;;;4951936;29;20515;-52
2023/03/03 00:41:19;;;;;;;21.10;15.10;;;0.10;99.90;;;;;;4954339;28;21040;-52
2023/03/03 00:43:47;;;;;;;17.53;14.57;;;0.10;99.90;;;;;;4952700;28;20553;-52
2023/03/03 00:46:17;;;;;;;17.97;15.23;;;0.20;99.90;;;;;;4951050;28;20523;-52
2023/03/03 00:48:44;;;;;;;16.90;14.73;;;0.20;99.90;;;;;;4951792;28;20479;-51
2023/03/03 00:51:24;;;;;;;16.60;14.10;;;0.20;99.90;;;;;;4951578;28;20494;-51
2023/03/03 00:53:51;;;;;;;16.57;14.30;;;0.10;99.90;;;;;;4950454;28;21297;-51
2023/03/03 00:56:17;;;;;;;16.50;14.13;;;0.10;99.90;;;;;;4955066;28;20902;-51
2023/03/03 00:58:46;;;;;;;16.57;14.37;;;0.00;99.90;;;;;;4953449;28;20518;-51
2023/03/03 01:01:14;;;;;;;15.40;13.53;;;0.10;99.90;;;;;;4947392;28;21056;-51
2023/03/03 01:03:41;;;;;;;15.57;13.37;;;0.10;99.90;;;;;;4947175;28;20561;-51
2023/03/03 01:06:08;;;;;;;19.83;14.57;;;0.00;99.90;;;;;;4952485;28;20608;-51
2023/03/03 01:08:34;;;;;;;15.70;14.00;;;0.00;99.90;;;;;;4958979;28;20521;-51
2023/03/03 01:11:07;;;;;;;18.00;13.50;;;0.10;99.90;;;;;;4954891;28;21251;-51
2023/03/03 01:13:36;;;;;;;15.83;13.90;;;0.00;99.90;;;;;;4951371;28;20838;-51
2023/03/03 01:16:04;;;;;;;15.83;14.10;;;-0.10;99.90;;;;;;4954234;29;21039;-51
2023/03/03 01:18:32;;;;;;;19.63;14.20;;;0.00;99.90;;;;;;4954433;28;20904;-51
2023/03/03 01:20:58;;;;;;;16.73;13.80;;;-0.10;99.90;;;;;;4954366;28;20467;-51
2023/03/03 01:23:25;;;;;;;17.67;14.90;;;-0.10;99.90;;;;;;4945873;28;20475;-53
2023/03/03 01:25:51;;;;;;;17.33;14.50;;;-0.10;99.90;;;;;;4950363;28;20491;-51
2023/03/03 01:28:18;;;;;;;16.30;14.07;;;0.00;99.90;;;;;;4950139;28;20514;-51
2023/03/03 01:30:45;;;;;;;17.23;13.70;;;-0.20;99.90;;;;;;4947092;28;20501;-51
2023/03/03 01:33:11;;;;;;;21.30;14.73;;;-0.10;99.90;;;;;;4945594;28;20565;-52
2023/03/03 01:35:43;;;;;;;20.73;15.87;;;-0.20;99.90;;;;;;4949800;28;20522;-53
2023/03/03 01:38:10;;;;;;;17.33;14.90;;;-0.10;99.90;;;;;;4961493;23;20538;-52
2023/03/03 01:40:37;;;;;;;21.83;16.43;;;-0.20;99.90;;;;;;4952828;28;20491;-53
2023/03/03 01:43:04;;;;;;;18.87;14.63;;;-0.20;99.90;;;;;;4950075;28;20554;-53
2023/03/03 01:45:31;;;;;;;16.13;13.97;;;-0.30;99.90;;;;;;4943253;28;20491;-53
2023/03/03 01:48:01;;;;;;;29.30;14.50;;;-0.20;99.90;;;;;;4952311;28;20959;-54
2023/03/03 01:50:37;;;;;;;18.00;14.10;;;-0.30;99.90;;;;;;4953098;28;20921;-53
2023/03/03 01:53:11;;;;;;;16.17;13.47;;;-0.30;99.90;;;;;;4955652;28;20470;-53
2023/03/03 01:55:40;;;;;;;16.77;14.03;;;-0.30;99.90;;;;;;4963182;28;20513;-53
2023/03/03 01:58:13;;;;;;;15.63;13.93;;;-0.30;99.90;;;;;;4950725;28;20538;-53
2023/03/03 02:00:44;;;;;;;22.43;13.67;;;-0.30;99.90;;;;;;4949599;28;20495;-53
2023/03/03 02:03:11;;;;;;;14.67;13.13;;;-0.40;99.90;;;;;;4951185;29;20471;-52
2023/03/03 02:05:41;;;;;;;15.40;13.30;;;-0.40;99.90;;;;;;4952375;28;20558;-53
2023/03/03 02:08:11;;;;;;;16.10;13.43;;;-0.30;99.90;;;;;;4952682;28;21027;-53
2023/03/03 02:10:38;;;;;;;16.53;13.40;;;-0.30;99.90;;;;;;4953738;28;20909;-53
2023/03/03 02:13:04;;;;;;;25.07;13.00;;;-0.40;99.90;;;;;;4952594;28;20471;-53
2023/03/03 02:15:34;;;;;;;15.83;13.77;;;-0.50;99.90;;;;;;4952720;28;20522;-53
2023/03/03 02:18:03;;;;;;;15.60;13.50;;;-0.60;99.90;;;;;;4952832;28;20490;-53
2023/03/03 02:20:53;;;;;;;17.40;13.13;;;-0.60;99.90;;;;;;4949701;28;20498;-52
2023/03/03 02:23:29;;;;;;;13.30;11.90;;;-0.70;99.90;;;;;;4958888;29;20531;-53
2023/03/03 02:26:06;;;;;;;13.57;12.17;;;-0.70;99.90;;;;;;4967099;28;20477;-53
2023/03/03 02:28:35;;;;;;;14.27;11.90;;;-0.70;99.90;;;;;;4959569;28;20550;-53
2023/03/03 02:31:02;;;;;;;15.03;12.67;;;-0.70;99.90;;;;;;4962412;28;20466;-53
2023/03/03 02:33:29;;;;;;;13.97;12.50;;;-0.60;99.90;;;;;;4960018;28;20470;-53
2023/03/03 02:35:56;;;;;;;25.77;12.80;;;-0.60;99.90;;;;;;4953151;28;20491;-52
2023/03/03 02:38:27;;;;;;;60.47;13.17;;;-0.60;99.90;;;;;;4953155;28;20491;-53
2023/03/03 02:41:02;;;;;;;15.80;13.80;;;-0.70;99.90;;;;;;4948346;28;20570;-53
2023/03/03 02:43:36;;;;;;;18.20;14.33;;;-0.60;99.90;;;;;;4949301;28;20466;-52
2023/03/03 02:46:03;;;;;;;18.90;14.40;;;-0.60;99.90;;;;;;4948840;28;20455;-53
2023/03/03 02:48:29;;;;;;;15.00;12.57;;;-0.60;99.90;;;;;;4953389;28;20482;-53
2023/03/03 02:50:56;;;;;;;18.97;13.00;;;-0.60;99.90;;;;;;4950049;28;20459;-52
2023/03/03 02:53:23;;;;;;;25.13;13.70;;;-0.60;99.90;;;;;;4952777;28;20472;-53
2023/03/03 02:55:49;;;;;;;36.73;13.87;;;-0.60;99.90;;;;;;4951897;28;20486;-52
2023/03/03 02:58:16;;;;;;;19.57;13.73;;;-0.70;99.90;;;;;;4951332;28;20487;-53
2023/03/03 03:00:46;;;;;;;21.60;14.40;;;-0.70;99.90;;;;;;4945632;28;20472;-53
2023/03/03 03:03:13;;;;;;;31.13;14.27;;;-0.70;99.90;;;;;;4953103;28;21025;-53
2023/03/03 03:05:39;;;;;;;21.87;13.10;;;-0.70;99.90;;;;;;4952388;29;20479;-52
2023/03/03 03:08:06;;;;;;;14.20;12.30;;;-0.70;99.90;;;;;;4952799;28;20463;-52
2023/03/03 03:10:32;;;;;;;34.83;13.13;;;-0.80;99.90;;;;;;4949320;28;20471;-52
2023/03/03 03:12:59;;;;;;;30.07;11.80;;;-0.80;99.90;;;;;;4944218;28;20467;-53
2023/03/03 03:15:26;;;;;;;34.83;13.70;;;-0.90;99.90;;;;;;4946396;28;20521;-53
2023/03/03 03:17:54;;;;;;;19.03;11.53;;;-1.00;99.90;;;;;;4949524;28;20486;-53
2023/03/03 03:20:20;;;;;;;21.53;11.57;;;-1.00;99.90;;;;;;4948658;28;20475;-53
2023/03/03 03:22:47;;;;;;;11.80;10.63;;;-1.00;98.40;;;;;;4950180;29;20467;-52
2023/03/03 03:25:14;;;;;;;23.90;9.67;;;-1.00;97.70;;;;;;4952626;28;20451;-52
2023/03/03 03:27:40;;;;;;;21.00;9.30;;;-1.00;97.80;;;;;;4952838;28;20545;-52
2023/03/03 03:30:08;;;;;;;12.30;8.93;;;-1.10;98.80;;;;;;4950413;28;20459;-51
2023/03/03 03:32:35;;;;;;;36.17;9.37;;;-1.10;98.20;;;;;;4948142;28;20459;-53
2023/03/03 03:35:03;;;;;;;28.07;8.37;;;-1.00;97.60;;;;;;4951919;28;21004;-53
2023/03/03 03:37:30;;;;;;;10.87;9.60;;;-1.00;97.30;;;;;;4951832;28;20498;-54
2023/03/03 03:39:56;;;;;;;11.07;10.03;;;-1.00;97.40;;;;;;4952928;28;20940;-53
2023/03/03 03:42:23;;;;;;;37.87;9.17;;;-1.00;97.10;;;;;;4949492;28;20844;-53
2023/03/03 03:44:50;;;;;;;16.00;9.47;;;-1.00;97.40;;;;;;4952653;28;20447;-53
2023/03/03 03:47:17;;;;;;;32.03;9.20;;;-1.00;96.30;;;;;;4953033;28;20502;-52
2023/03/03 03:49:43;;;;;;;30.73;9.50;;;-0.90;96.10;;;;;;4951155;28;20466;-52
2023/03/03 03:52:11;;;;;;;28.20;10.93;;;-0.90;95.90;;;;;;4951684;28;20545;-53
2023/03/03 03:54:38;;;;;;;14.27;10.67;;;-0.90;95.40;;;;;;4952556;28;20467;-53
2023/03/03 03:57:05;;;;;;;15.97;10.43;;;-1.00;96.00;;;;;;4952762;28;20591;-52
2023/03/03 03:59:32;;;;;;;29.23;9.50;;;-0.90;95.60;;;;;;4952086;28;20486;-52
2023/03/03 04:01:58;;;;;;;24.63;9.23;;;-0.90;95.30;;;;;;4952619;28;20529;-52
2023/03/03 04:04:25;;;;;;;32.07;9.87;;;-1.00;95.70;;;;;;4952338;28;20498;-52
2023/03/03 04:06:51;;;;;;;85.27;10.63;;;-0.90;95.50;;;;;;4951404;28;20467;-52
2023/03/03 04:09:19;;;;;;;12.03;10.80;;;-0.90;95.20;;;;;;4951520;28;21024;-53
2023/03/03 04:11:46;;;;;;;22.53;10.73;;;-0.90;95.00;;;;;;4950705;28;20528;-53
2023/03/03 04:14:12;;;;;;;19.53;10.60;;;-0.90;94.60;;;;;;4950570;28;20518;-53
2023/03/03 04:16:39;;;;;;;34.20;11.27;;;-0.80;94.20;;;;;;4951238;28;20482;-53
2023/03/03 04:19:06;;;;;;;25.33;11.17;;;-0.90;93.80;;;;;;4951645;28;20615;-52
2023/03/03 04:21:32;;;;;;;43.23;13.70;;;-0.90;94.50;;;;;;4954046;28;20471;-53
2023/03/03 04:23:59;;;;;;;42.80;12.20;;;-0.90;94.60;;;;;;4955245;28;20466;-52
2023/03/03 04:26:27;;;;;;;45.47;10.23;;;-1.00;95.10;;;;;;4955614;28;20499;-51
2023/03/03 04:28:54;;;;;;;18.03;12.37;;;-1.10;95.40;;;;;;4951360;28;20522;-53
2023/03/03 04:31:20;;;;;;;39.43;12.53;;;-1.10;96.00;;;;;;4956032;28;20466;-53
2023/03/03 04:33:47;;;;;;;45.37;13.50;;;-1.00;95.70;;;;;;4954478;28;20459;-52
2023/03/03 04:36:13;;;;;;;19.03;13.23;;;-1.00;95.30;;;;;;4955987;28;20538;-53
2023/03/03 04:38:40;;;;;;;22.93;13.40;;;-1.00;95.40;;;;;;4954846;28;20498;-53
2023/03/03 04:41:07;;;;;;;37.30;12.80;;;-0.80;96.30;;;;;;4954633;28;20515;-52
2023/03/03 04:43:34;;;;;;;24.90;12.23;;;-0.90;95.00;;;;;;4955162;28;20960;-53
2023/03/03 04:46:01;;;;;;;26.97;11.70;;;-0.80;94.90;;;;;;4955410;28;20533;-52
2023/03/03 04:48:28;;;;;;;54.23;10.20;;;-0.80;94.20;;;;;;4955380;28;20490;-53
2023/03/03 04:50:54;;;;;;;47.33;9.80;;;-1.00;93.90;;;;;;4956229;28;20470;-52
2023/03/03 04:53:21;;;;;;;95.33;10.77;;;-1.00;94.90;;;;;;4958434;28;21007;-52
2023/03/03 04:55:50;;;;;;;13.80;10.80;;;-1.00;95.40;;;;;;4965305;28;20515;-53
2023/03/03 04:58:18;;;;;;;26.67;10.10;;;-1.10;95.40;;;;;;4968530;28;20486;-53
2023/03/03 05:00:46;;;;;;;41.37;9.80;;;-1.00;95.50;;;;;;4964111;28;20466;-54
2023/03/03 05:03:13;;;;;;;21.77;8.60;;;-1.10;95.00;;;;;;4965072;28;20471;-53
2023/03/03 05:05:40;;;;;;;11.33;8.73;;;-1.10;95.60;;;;;;4950681;28;20487;-53
2023/03/03 05:08:07;;;;;;;9.13;8.20;;;-1.10;95.80;;;;;;4954790;28;20478;-53
2023/03/03 05:10:33;;;;;;;22.70;8.23;;;-1.10;95.80;;;;;;4951180;28;20558;-53
2023/03/03 05:13:00;;;;;;;18.60;9.13;;;-1.10;95.80;;;;;;4952590;28;20973;-53
2023/03/03 05:15:26;;;;;;;10.70;7.93;;;-1.10;96.10;;;;;;4950640;28;20908;-53
2023/03/03 05:17:55;;;;;;;13.03;8.83;;;-1.10;95.60;;;;;;4946590;28;20491;-52
2023/03/03 05:20:22;;;;;;;55.30;9.27;;;-1.10;95.60;;;;;;4953980;28;20478;-53
2023/03/03 05:22:48;;;;;;;23.77;9.07;;;-1.10;95.60;;;;;;4952724;28;20533;-53
2023/03/03 05:25:15;;;;;;;7.50;6.80;;;-1.10;95.40;;;;;;4953124;28;20462;-53
2023/03/03 05:27:42;;;;;;;15.07;8.07;;;-1.00;95.10;;;;;;4947738;28;20486;-52
2023/03/03 05:30:10;;;;;;;11.73;8.93;;;-0.90;94.60;;;;;;4949988;28;21260;-52
2023/03/03 05:32:37;;;;;;;9.93;8.03;;;-1.00;95.00;;;;;;4950009;28;20898;-53
2023/03/03 05:35:06;;;;;;;9.30;8.27;;;-1.10;95.80;;;;;;4952308;28;20585;-53
2023/03/03 05:37:32;;;;;;;13.93;8.30;;;-1.10;96.10;;;;;;4947760;28;21016;-52
2023/03/03 05:39:59;;;;;;;11.63;8.03;;;-1.20;96.70;;;;;;4950843;28;20470;-53
2023/03/03 05:42:25;;;;;;;34.23;9.10;;;-1.10;96.90;;;;;;4952934;28;20470;-52
2023/03/03 05:44:52;;;;;;;11.00;9.63;;;-1.20;97.10;;;;;;4951752;28;21019;-52
2023/03/03 05:47:19;;;;;;;10.70;7.43;;;-1.10;97.50;;;;;;4951374;28;20474;-52
2023/03/03 05:49:45;;;;;;;16.73;9.30;;;-1.30;98.50;;;;;;4952797;28;20466;-52
2023/03/03 05:52:13;;;;;;;15.63;10.10;;;-1.20;99.90;;;;;;4952075;28;20471;-52
2023/03/03 05:54:40;;;;;;;18.90;9.33;;;-1.20;99.90;;;;;;4953652;28;20995;-53
2023/03/03 05:57:06;;;;;;;15.83;10.00;;;-1.10;99.90;;;;;;4953111;28;20482;-53
2023/03/03 05:59:33;;;;;;;11.53;10.13;;;-1.10;99.90;;;;;;4952913;28;20486;-53
2023/03/03 06:01:59;;;;;;;11.67;9.10;;;-1.10;99.90;;;;;;4951329;28;20818;-52
2023/03/03 06:04:26;;;;;;;26.00;10.00;;;-1.10;99.90;;;;;;4950609;28;20565;-52
2023/03/03 06:06:53;;;;;;;26.87;9.23;;;-1.10;99.90;;;;;;4950674;28;20455;-53
2023/03/03 06:09:21;;;;;;;10.80;9.80;;;-1.10;99.90;;;;;;4952820;28;21028;-53
2023/03/03 06:11:48;;;;;;;20.13;10.40;;;-1.10;99.90;;;;;;4952904;28;20475;-53
2023/03/03 06:14:15;;;;;;;14.60;10.73;;;-1.10;99.90;;;;;;4954211;28;20545;-54
2023/03/03 06:16:41;;;;;;;11.90;10.70;;;-1.00;99.80;;;;;;4947789;28;20911;-52
2023/03/03 06:19:08;;;;;;;27.23;12.93;;;-0.90;99.60;;;;;;4951257;28;20482;-54
2023/03/03 06:21:34;;;;;;;41.50;13.57;;;-0.80;98.90;;;;;;4948581;28;20464;-54
2023/03/03 06:24:01;;;;;;;34.60;14.90;;;-0.90;98.60;;;;;;4947654;28;20498;-53
2023/03/03 06:26:29;;;;;;;20.73;14.60;;;-0.90;98.80;;;;;;4945041;28;21045;-53
2023/03/03 06:28:55;;;;;;;26.97;14.07;;;-1.00;99.80;;;;;;4949710;28;20486;-53
2023/03/03 06:31:22;;;;;;;46.63;16.17;;;-1.00;98.70;;;;;;4948580;28;20462;-53
2023/03/03 06:33:50;;;;;;;35.67;16.30;;;-1.00;99.30;;;;;;4951215;28;20463;-53
2023/03/03 06:36:17;;;;;;;45.33;17.93;;;-0.90;99.10;;;;;;4948029;28;20497;-53
2023/03/03 06:38:43;;;;;;;27.87;17.40;;;-0.90;98.90;;;;;;4949275;28;20487;-55
2023/03/03 06:41:11;;;;;;;44.03;17.70;;;-0.90;98.70;;;;;;4947636;28;20473;-56
2023/03/03 06:43:39;;;;;;;41.07;18.07;;;-0.90;98.90;;;;;;4950684;28;20291;-56
2023/03/03 06:46:06;;;;;;;31.47;17.03;;;-0.80;98.50;;;;;;4952722;29;20521;-56
2023/03/03 06:48:33;;;;;;;30.90;16.20;;;-0.70;98.10;;;;;;4948502;28;20495;-56
2023/03/03 06:51:01;;;;;;;22.13;16.23;;;-0.80;99.00;;;;;;4952512;28;20883;-56
2023/03/03 06:53:28;;;;;;;26.80;16.17;;;-0.90;99.70;;;;;;4950073;28;20466;-55
2023/03/03 06:55:56;;;;;;;19.50;14.57;;;-0.80;97.30;;;;;;4954248;28;20458;-54
2023/03/03 06:58:24;;;;;;;22.70;14.67;;;-0.80;99.10;;;;;;4944869;28;20518;-55
2023/03/03 07:00:56;;;;;;;21.13;16.33;;;-0.80;98.80;;;;;;4953415;28;20478;-55
2023/03/03 07:03:26;;;;;;;24.50;16.10;;;-0.80;98.70;;;;;;4952798;29;20844;-55
2023/03/03 07:05:52;;;;;;;24.23;17.23;;;-0.80;99.00;;;;;;4960627;28;20596;-55
2023/03/03 07:08:22;;;;;;;21.50;15.80;;;-0.80;99.90;;;;;;4970172;28;20509;-55
2023/03/03 07:10:49;;;;;;;20.20;15.00;;;-0.70;98.50;;;;;;4962907;28;20820;-56
2023/03/03 07:13:21;;;;;;;21.27;16.70;;;-0.70;99.90;;;;;;4952973;28;20522;-56
2023/03/03 07:15:49;;;;;;;19.50;14.57;;;-0.60;99.40;;;;;;4946548;28;20838;-56
2023/03/03 07:18:31;;;;;;;20.53;15.30;;;-0.60;99.90;;;;;;4945009;29;20479;-56
2023/03/03 07:20:59;;;;;;;25.43;15.50;;;-0.60;99.90;;;;;;4950204;28;20518;-56
2023/03/03 07:23:30;;;;;;;21.93;15.70;;;-0.60;99.90;;;;;;4952676;28;20451;-56
2023/03/03 07:25:57;;;;;;;26.33;14.80;;;-0.60;99.90;;;;;;4951162;28;20470;-56
2023/03/03 07:28:25;;;;;;;19.93;15.07;;;-0.60;99.90;;;;;;4947537;29;20471;-55
2023/03/03 07:30:53;;;;;;;20.50;13.73;;;-0.60;99.90;;;;;;4952449;28;20475;-55
2023/03/03 07:33:27;;;;;;;22.93;14.57;;;-0.60;99.90;;;;;;4952123;28;20877;-55
2023/03/03 07:35:56;;;;;;;33.57;13.83;;;-0.50;99.90;;;;;;4950733;28;20458;-55
2023/03/03 07:38:31;;;;;;;25.30;13.57;;;-0.50;99.90;;;;;;4950132;28;20494;-53
2023/03/03 07:41:00;;;;;;;19.13;13.33;;;-0.50;99.90;;;;;;4947444;28;20487;-53
2023/03/03 07:43:34;;;;;;;27.83;14.83;;;-0.50;99.90;;;;;;4951084;28;20455;-52
2023/03/03 07:46:22;;;;;;;21.37;14.57;;;-0.40;99.90;;;;;;4945319;28;20542;-53
2023/03/03 07:48:51;;;;;;;19.70;14.50;;;-0.40;99.90;;;;;;4948385;28;20483;-52
2023/03/03 07:51:21;;;;;;;17.10;14.40;;;-0.40;99.90;;;;;;4953408;28;20443;-52
2023/03/03 07:53:50;;;;;;;15.73;13.40;;;-0.30;99.90;;;;;;4945206;28;20489;-53
2023/03/03 07:56:26;;;;;;;20.90;12.17;;;-0.20;99.90;;;;;;4953146;28;21106;-52
2023/03/03 07:58:54;;;;;;;14.50;12.63;;;-0.20;99.90;;;;;;4952485;28;20477;-52
2023/03/03 08:01:39;;;;;;;20.47;12.27;;;-0.10;99.90;;;;;;4955488;28;20554;-51
2023/03/03 08:04:17;;;;;;;16.23;12.70;;;-0.10;99.90;;;;;;4954941;28;20974;-50
2023/03/03 08:06:49;;;;;;;13.60;11.53;;;-0.10;99.90;;;;;;4948283;28;20474;-51
2023/03/03 08:09:42;;;;;;;14.37;11.47;;;0.00;99.90;;;;;;4950718;29;20500;-50
2023/03/03 08:12:29;;;;;;;13.50;11.27;;;-0.20;99.90;;;;;;4947965;28;20465;-50
2023/03/03 08:14:58;;;;;;;21.40;12.07;;;-0.20;99.90;;;;;;4955730;28;20466;-50
2023/03/03 08:17:35;;;;;;;14.10;11.70;;;-0.10;99.90;;;;;;4956730;29;20488;-52
2023/03/03 08:20:24;;;;;;;12.23;10.83;;;0.00;99.90;;;;;;4945351;28;20471;-51
2023/03/03 08:22:50;;;;;;;12.33;10.13;;;0.10;99.90;;;;;;4953316;28;20529;-52
2023/03/03 08:25:17;;;;;;;12.50;10.90;;;0.10;99.90;;;;;;4954725;28;20521;-51
2023/03/03 08:27:43;;;;;;;12.37;11.07;;;0.20;99.90;;;;;;4955364;28;20490;-63
2023/03/03 08:30:11;;;;;;;14.63;11.80;;;0.10;99.90;;;;;;4948408;28;20529;-51
2023/03/03 08:32:38;;;;;;;12.87;11.50;;;0.10;99.90;;;;;;4949767;28;20517;-51
2023/03/03 08:35:06;;;;;;;15.03;11.53;;;0.00;99.90;;;;;;4953722;28;20526;-52
2023/03/03 08:37:33;;;;;;;14.20;11.70;;;0.10;99.90;;;;;;4950829;28;20896;-55
2023/03/03 08:40:00;;;;;;;13.20;11.40;;;0.00;99.90;;;;;;4952016;28;20467;-51
2023/03/03 08:42:28;;;;;;;14.50;11.70;;;0.10;99.90;;;;;;4954205;28;20522;-52
2023/03/03 08:44:55;;;;;;;15.07;12.20;;;0.10;99.90;;;;;;4954561;29;20470;-53
2023/03/03 08:47:22;;;;;;;12.23;10.93;;;0.20;99.90;;;;;;4953788;28;20615;-52
2023/03/03 08:49:48;;;;;;;13.33;11.33;;;0.40;99.90;;;;;;4952782;28;20467;-52
2023/03/03 08:52:16;;;;;;;13.77;11.87;;;0.30;99.90;;;;;;4954258;28;20517;-51
2023/03/03 08:54:43;;;;;;;14.80;12.47;;;0.40;99.90;;;;;;4954214;28;20944;-51
2023/03/03 08:57:09;;;;;;;13.13;11.30;;;0.40;99.90;;;;;;4953502;28;20487;-51
2023/03/03 08:59:37;;;;;;;11.50;10.30;;;0.30;99.90;;;;;;4952112;28;20546;-52
2023/03/03 09:02:04;;;;;;;10.90;9.77;;;0.40;99.90;;;;;;4945559;28;20474;-52
2023/03/03 09:04:31;;;;;;;13.50;11.40;;;0.40;99.90;;;;;;4948839;28;20471;-51
2023/03/03 09:06:58;;;;;;;12.63;11.13;;;0.40;99.90;;;;;;4945352;29;20506;-52
2023/03/03 09:09:26;;;;;;;13.73;10.83;;;0.50;99.90;;;;;;4947889;29;21177;-52
2023/03/03 09:11:57;;;;;;;14.70;11.97;;;0.50;99.90;;;;;;4934806;28;20961;-53
2023/03/03 09:14:28;;;;;;;12.20;10.40;;;0.50;99.90;;;;;;4950229;28;20573;-50
2023/03/03 09:16:56;;;;;;;12.37;11.03;;;0.50;99.90;;;;;;4946981;28;20482;-51
2023/03/03 09:19:26;;;;;;;12.63;10.10;;;0.60;99.90;;;;;;4950616;28;20462;-51
2023/03/03 09:21:54;;;;;;;10.03;9.00;;;0.50;99.90;;;;;;4960917;28;20459;-51
2023/03/03 09:24:28;;;;;;;12.60;10.67;;;0.50;99.90;;;;;;4955034;28;20453;-52
2023/03/03 09:26:57;;;;;;;11.03;9.90;;;0.60;99.90;;;;;;4944654;28;20487;-51
2023/03/03 09:29:27;;;;;;;12.20;10.23;;;0.60;99.90;;;;;;4949423;28;20547;-51
2023/03/03 09:31:55;;;;;;;16.10;11.40;;;0.60;99.90;;;;;;4952895;28;20462;-51
2023/03/03 09:34:24;;;;;;;13.03;10.50;;;0.70;99.90;;;;;;4954448;28;20585;-51
2023/03/03 09:36:54;;;;;;;12.57;10.50;;;0.70;99.90;;;;;;4954063;28;20482;-52
2023/03/03 09:39:23;;;;;;;14.87;11.30;;;0.70;99.90;;;;;;4953105;28;20486;-51
2023/03/03 09:42:26;;;;;;;13.67;11.57;;;0.70;99.90;;;;;;4952083;28;20466;-51
2023/03/03 09:45:26;;;;;;;12.97;11.33;;;0.70;99.90;;;;;;4954252;28;20463;-51
2023/03/03 09:48:19;;;;;;;14.00;11.90;;;0.70;99.90;;;;;;4911316;28;20485;-52
2023/03/03 09:50:58;;;;;;;16.53;12.60;;;0.70;99.90;;;;;;4945550;28;20466;-51
2023/03/03 09:53:38;;;;;;;16.50;12.40;;;0.70;99.90;;;;;;4940925;28;20541;-51
2023/03/03 09:56:11;;;;;;;15.47;12.20;;;0.90;99.90;;;;;;4940155;28;20888;-51
2023/03/03 09:58:53;;;;;;;15.37;12.63;;;0.90;99.90;;;;;;4943478;28;20519;-51
2023/03/03 10:01:42;;;;;;;18.07;14.17;;;0.90;99.90;;;;;;4948033;28;20458;-51
2023/03/03 10:04:30;;;;;;;17.13;12.50;;;1.00;99.90;;;;;;4952424;28;20458;-52
2023/03/03 10:07:23;;;;;;;13.10;11.70;;;1.00;99.90;;;;;;4951872;29;20455;-52
2023/03/03 10:10:05;;;;;;;16.87;13.00;;;1.00;99.90;;;;;;4954810;28;20447;-51
2023/03/03 10:12:38;;;;;;;16.17;12.63;;;1.10;99.90;;;;;;4948944;28;20541;-51
2023/03/03 10:15:20;;;;;;;16.40;12.73;;;0.90;99.90;;;;;;4949699;29;20561;-51
2023/03/03 10:17:51;;;;;;;16.50;13.20;;;1.10;99.90;;;;;;4948560;28;20494;-51
2023/03/03 10:20:37;;;;;;;14.37;12.10;;;1.00;99.90;;;;;;4944009;28;20463;-51
2023/03/03 10:23:19;;;;;;;17.80;13.20;;;0.90;99.90;;;;;;4951618;29;20471;-51
2023/03/03 10:25:54;;;;;;;20.20;14.40;;;1.00;99.90;;;;;;4951669;28;20462;-51
2023/03/03 10:28:55;;;;;;;14.77;12.40;;;1.00;99.90;;;;;;4950831;28;20548;-51
2023/03/03 10:31:34;;;;;;;17.07;12.60;;;1.10;99.90;;;;;;4946560;28;20525;-51
2023/03/03 10:34:14;;;;;;;20.77;13.13;;;1.20;99.90;;;;;;4949781;28;20579;-52
2023/03/03 10:36:51;;;;;;;16.90;13.87;;;1.20;99.90;;;;;;4945956;28;20463;-51
2023/03/03 10:39:38;;;;;;;19.17;13.53;;;1.30;99.90;;;;;;4945803;28;20486;-52
2023/03/03 10:42:16;;;;;;;21.73;13.77;;;1.40;99.90;;;;;;4944111;29;20493;-51
2023/03/03 10:44:56;;;;;;;19.17;13.87;;;1.40;99.90;;;;;;4944855;29;20463;-52
2023/03/03 10:47:41;;;;;;;16.13;12.83;;;1.40;99.90;;;;;;4948975;28;20459;-51
2023/03/03 10:50:16;;;;;;;17.47;13.80;;;1.30;99.90;;;;;;4951484;28;20980;-51
2023/03/03 10:52:48;;;;;;;15.73;12.97;;;1.50;99.90;;;;;;4944570;28;20550;-51
2023/03/03 10:55:23;;;;;;;16.93;13.50;;;1.60;99.90;;;;;;4947737;28;20558;-52
2023/03/03 10:58:02;;;;;;;15.53;11.90;;;1.70;99.90;;;;;;4945464;29;20561;-51
2023/03/03 11:00:34;;;;;;;19.07;13.30;;;1.70;99.90;;;;;;4951392;28;20471;-51
2023/03/03 11:03:48;;;;;;;18.83;13.13;;;1.60;99.90;;;;;;4953399;28;20479;-51
2023/03/03 11:06:20;;;;;;;19.70;13.13;;;1.60;99.90;;;;;;4947920;29;20481;-51
2023/03/03 11:08:52;;;;;;;16.73;13.43;;;1.70;99.90;;;;;;4953311;28;20475;-51
2023/03/03 11:11:31;;;;;;;16.53;12.77;;;1.80;99.90;;;;;;4937100;29;20466;-52
2023/03/03 11:14:05;;;;;;;17.70;13.20;;;1.70;99.90;;;;;;4949031;28;21214;-52
2023/03/03 11:16:46;;;;;;;19.30;13.97;;;1.80;99.90;;;;;;4952330;28;20469;-51
2023/03/03 11:19:31;;;;;;;17.33;14.00;;;1.80;99.90;;;;;;4946559;29;21024;-52
2023/03/03 11:22:10;;;;;;;20.60;14.07;;;1.90;99.90;;;;;;4947953;28;20538;-51
2023/03/03 11:24:53;;;;;;;19.13;14.93;;;1.80;99.90;;;;;;4953349;28;20942;-52
2023/03/03 11:27:38;;;;;;;22.20;15.20;;;1.80;99.90;;;;;;4951736;28;20491;-52
2023/03/03 11:30:23;;;;;;;21.03;14.17;;;1.90;99.90;;;;;;4953720;28;21049;-51
2023/03/03 11:32:59;;;;;;;24.67;15.87;;;1.80;99.90;;;;;;4958663;28;20462;-52
2023/03/03 11:35:31;;;;;;;17.83;13.87;;;1.60;99.90;;;;;;4948351;28;20466;-51
2023/03/03 11:38:10;;;;;;;18.17;12.17;;;1.60;99.90;;;;;;4953818;28;20528;-52
2023/03/03 11:40:46;;;;;;;20.17;14.57;;;1.70;99.90;;;;;;4952329;28;20474;-52
2023/03/03 11:43:19;;;;;;;17.57;12.90;;;1.70;99.90;;;;;;4950671;29;20462;-52
2023/03/03 11:45:49;;;;;;;23.73;16.20;;;1.90;99.90;;;;;;4952209;28;20463;-52
2023/03/03 11:48:21;;;;;;;19.90;14.53;;;1.80;99.90;;;;;;4950007;28;20591;-52
2023/03/03 11:50:58;;;;;;;21.13;13.63;;;1.90;99.90;;;;;;4945502;29;21055;-52
2023/03/03 11:53:38;;;;;;;21.57;15.10;;;1.90;99.90;;;;;;4949216;28;20561;-50
2023/03/03 11:56:13;;;;;;;30.30;21.80;;;2.00;99.90;;;;;;4947919;28;20466;-51
2023/03/03 11:58:44;;;;;;;25.00;17.57;;;1.80;99.90;;;;;;4952038;28;20487;-51
2023/03/03 12:01:20;;;;;;;26.10;19.50;;;1.90;99.90;;;;;;4950032;28;20941;-52
2023/03/03 12:03:53;;;;;;;19.60;14.90;;;2.00;99.90;;;;;;4947356;28;20989;-52
2023/03/03 12:06:31;;;;;;;21.87;14.73;;;2.20;99.90;;;;;;4954376;28;20868;-51
2023/03/03 12:09:09;;;;;;;19.23;14.37;;;2.20;99.90;;;;;;4955497;28;20474;-51
2023/03/03 12:11:45;;;;;;;22.13;14.93;;;2.20;99.90;;;;;;4945415;28;20561;-51
2023/03/03 12:14:23;;;;;;;20.77;15.00;;;2.30;99.90;;;;;;4941687;28;20470;-52
2023/03/03 12:16:56;;;;;;;19.10;15.07;;;2.30;99.90;;;;;;4949188;29;20836;-52
2023/03/03 12:19:33;;;;;;;20.93;14.87;;;2.30;99.90;;;;;;4951672;28;20545;-52
2023/03/03 12:22:19;;;;;;;22.43;15.80;;;2.20;99.90;;;;;;4953874;28;20465;-52
2023/03/03 12:25:17;;;;;;;20.30;14.23;;;2.10;99.90;;;;;;4956338;29;20509;-51
2023/03/03 12:27:50;;;;;;;23.87;14.70;;;2.10;99.90;;;;;;4952252;28;20490;-51
2023/03/03 12:30:29;;;;;;;20.80;15.60;;;2.20;99.90;;;;;;4948832;28;20980;-52
2023/03/03 12:33:20;;;;;;;24.80;17.00;;;2.20;99.90;;;;;;4954726;28;21137;-51
2023/03/03 12:35:58;;;;;;;22.23;15.50;;;2.20;99.90;;;;;;4951076;28;20470;-51
2023/03/03 12:38:35;;;;;;;22.43;17.60;;;2.20;99.90;;;;;;4951368;28;20526;-51
2023/03/03 12:41:08;;;;;;;22.57;16.00;;;2.20;99.90;;;;;;4949227;29;20463;-53
2023/03/03 12:43:53;;;;;;;26.83;17.53;;;2.30;99.90;;;;;;4947974;28;20463;-51
2023/03/03 12:46:25;;;;;;;19.90;14.73;;;2.20;99.90;;;;;;4946906;29;20474;-52
2023/03/03 12:48:52;;;;;;;20.20;15.30;;;2.30;99.90;;;;;;4952971;28;20565;-52
2023/03/03 12:51:31;;;;;;;20.00;15.57;;;2.40;99.90;;;;;;4951807;28;20502;-51
2023/03/03 12:54:41;;;;;;;21.00;15.40;;;2.50;99.90;;;;;;4948894;28;20489;-51